createdAt,value
2022-12-11T00:00:39.068Z,16.43
2022-12-11T00:03:41.967Z,16.50
2022-12-11T00:06:44.707Z,16.37
2022-12-11T00:09:47.425Z,13.23
2022-12-11T00:12:51.451Z,17.13
2022-12-11T00:15:54.113Z,14.20
2022-12-11T00:18:56.813Z,14.13
2022-12-11T00:21:59.468Z,16.83
2022-12-11T00:25:02.168Z,16.20
2022-12-11T00:28:06.276Z,21.27
2022-12-11T00:31:10.776Z,16.23
2022-12-11T00:34:13.675Z,15.73
2022-12-11T00:37:16.474Z,18.83
2022-12-11T00:40:19.251Z,17.23
2022-12-11T00:43:23.297Z,16.70
2022-12-11T00:46:25.982Z,15.77
2022-12-11T00:49:28.860Z,17.07
2022-12-11T00:52:31.513Z,17.43
2022-12-11T00:55:38.725Z,14.23
2022-12-11T00:58:42.945Z,16.27
2022-12-11T01:01:45.711Z,17.27
2022-12-11T01:04:48.404Z,16.87
2022-12-11T01:07:51.156Z,16.83
2022-12-11T01:11:02.462Z,17.07
2022-12-11T01:14:06.629Z,15.77
2022-12-11T01:17:09.278Z,17.33
2022-12-11T01:20:12.761Z,16.50
2022-12-11T01:23:15.520Z,16.83
2022-12-11T01:26:18.686Z,15.63
2022-12-11T01:29:22.740Z,14.30
2022-12-11T01:32:25.464Z,17.17
2022-12-11T01:35:29.018Z,16.00
2022-12-11T01:38:31.707Z,15.60
2022-12-11T01:41:34.415Z,15.77
2022-12-11T01:45:19.643Z,16.23
2022-12-11T01:48:26.483Z,16.53
2022-12-11T01:51:32.166Z,15.30
2022-12-11T01:54:36.322Z,18.33
2022-12-11T01:57:42.299Z,15.87
2022-12-11T02:00:45.091Z,16.67
2022-12-11T02:03:49.585Z,17.93
2022-12-11T02:06:53.319Z,17.77
2022-12-11T02:09:56.019Z,14.63
2022-12-11T02:13:04.816Z,15.53
2022-12-11T02:16:16.821Z,14.73
2022-12-11T02:19:38.249Z,15.60
2022-12-11T02:22:58.466Z,14.60
2022-12-11T02:26:13.199Z,14.60
2022-12-11T02:29:23.893Z,15.07
2022-12-11T02:32:31.371Z,13.63
2022-12-11T02:35:38.938Z,16.57
2022-12-11T02:38:46.792Z,16.43
2022-12-11T02:41:52.339Z,15.40
2022-12-11T02:45:00.078Z,15.70
2022-12-11T02:48:06.555Z,14.67
2022-12-11T02:51:11.431Z,15.70
2022-12-11T02:54:20.537Z,14.50
2022-12-11T02:57:28.792Z,15.13
2022-12-11T03:00:33.008Z,24.27
2022-12-11T03:03:35.637Z,17.20
2022-12-11T03:06:44.275Z,15.27
2022-12-11T03:09:48.509Z,13.73
2022-12-11T03:12:55.715Z,14.00
2022-12-11T03:16:11.920Z,14.47
2022-12-11T03:19:23.445Z,14.20
2022-12-11T03:22:33.689Z,16.20
2022-12-11T03:25:45.734Z,13.93
2022-12-11T03:28:50.586Z,17.00
2022-12-11T03:31:59.433Z,15.87
2022-12-11T03:35:06.329Z,14.87
2022-12-11T03:38:14.654Z,16.97
2022-12-11T03:41:20.211Z,15.53
2022-12-11T03:44:25.103Z,16.93
2022-12-11T03:47:30.998Z,16.67
2022-12-11T03:50:36.470Z,17.33
2022-12-11T03:53:40.107Z,14.87
2022-12-11T03:56:45.122Z,18.80
2022-12-11T03:59:48.361Z,16.97
2022-12-11T04:03:12.710Z,17.97
2022-12-11T04:06:15.810Z,17.90
2022-12-11T04:09:18.498Z,16.83
2022-12-11T04:12:21.266Z,18.03
2022-12-11T04:15:23.868Z,18.00
2022-12-11T04:18:45.227Z,15.00
2022-12-11T04:22:05.449Z,14.53
2022-12-11T04:25:09.649Z,16.60
2022-12-11T04:28:12.531Z,16.83
2022-12-11T04:31:16.039Z,15.07
2022-12-11T04:34:20.087Z,17.83
2022-12-11T04:37:22.695Z,18.77
2022-12-11T04:40:25.632Z,15.57
2022-12-11T04:43:28.528Z,17.97
2022-12-11T04:46:31.568Z,16.60
2022-12-11T04:49:35.551Z,18.33
2022-12-11T04:52:38.161Z,17.90
2022-12-11T04:55:40.799Z,17.67
2022-12-11T04:58:45.124Z,18.50
2022-12-11T05:01:47.844Z,16.17
2022-12-11T05:04:51.999Z,14.67
2022-12-11T05:07:54.607Z,19.00
2022-12-11T05:10:58.073Z,17.50
2022-12-11T05:14:00.639Z,19.50
2022-12-11T05:17:03.284Z,18.13
2022-12-11T05:20:09.389Z,17.73
2022-12-11T05:23:11.977Z,18.83
2022-12-11T05:26:17.363Z,18.83
2022-12-11T05:29:19.980Z,17.47
2022-12-11T05:32:22.640Z,18.30
2022-12-11T05:35:26.607Z,18.00
2022-12-11T05:38:29.263Z,17.13
2022-12-11T05:41:33.504Z,18.03
2022-12-11T05:44:36.162Z,19.03
2022-12-11T05:47:38.869Z,19.50
2022-12-11T05:50:42.818Z,21.93
2022-12-11T05:53:47.199Z,18.17
2022-12-11T05:56:51.364Z,18.07
2022-12-11T05:59:53.948Z,18.40
2022-12-11T06:02:56.584Z,18.17
2022-12-11T06:06:02.739Z,17.10
2022-12-11T06:09:06.438Z,18.53
2022-12-11T06:12:09.012Z,17.10
2022-12-11T06:15:12.137Z,19.50
2022-12-11T06:18:14.877Z,21.40
2022-12-11T06:21:20.782Z,19.87
2022-12-11T06:24:23.389Z,16.90
2022-12-11T06:27:25.953Z,19.17
2022-12-11T06:30:38.283Z,17.90
2022-12-11T06:33:42.185Z,17.30
2022-12-11T06:36:46.108Z,17.17
2022-12-11T06:39:48.700Z,17.23
2022-12-11T06:42:51.303Z,18.23
2022-12-11T06:45:55.911Z,18.80
2022-12-11T06:49:01.815Z,17.27
2022-12-11T06:52:06.545Z,19.67
2022-12-11T06:55:09.945Z,15.73
2022-12-11T06:58:12.888Z,16.33
2022-12-11T07:01:18.395Z,18.20
2022-12-11T07:04:24.597Z,17.23
2022-12-11T07:07:28.566Z,17.13
2022-12-11T07:10:31.196Z,17.07
2022-12-11T07:13:34.421Z,18.03
2022-12-11T07:16:37.536Z,20.87
2022-12-11T07:19:40.710Z,19.10
2022-12-11T07:22:46.846Z,19.40
2022-12-11T07:25:49.593Z,17.50
2022-12-11T07:28:52.315Z,16.50
2022-12-11T07:31:55.028Z,18.53
2022-12-11T07:34:57.699Z,17.97
2022-12-11T07:38:01.621Z,18.37
2022-12-11T07:41:05.280Z,16.47
2022-12-11T07:44:07.876Z,17.00
2022-12-11T07:47:10.456Z,17.70
2022-12-11T07:50:13.143Z,16.00
2022-12-11T07:53:17.113Z,16.73
2022-12-11T07:56:20.274Z,18.87
2022-12-11T07:59:22.910Z,16.33
2022-12-11T08:02:25.545Z,16.03
2022-12-11T08:05:28.395Z,14.67
2022-12-11T08:08:32.543Z,19.90
2022-12-11T08:11:35.541Z,19.50
2022-12-11T08:14:38.166Z,17.23
2022-12-11T08:17:40.842Z,17.27
2022-12-11T08:20:43.415Z,18.00
2022-12-11T08:23:47.564Z,18.53
2022-12-11T08:26:50.270Z,18.13
2022-12-11T08:29:52.838Z,15.97
2022-12-11T08:32:55.429Z,18.47
2022-12-11T08:35:58.524Z,15.77
2022-12-11T08:39:02.479Z,15.93
2022-12-11T08:42:05.283Z,14.90
2022-12-11T08:45:09.447Z,15.77
2022-12-11T08:48:12.388Z,21.17
2022-12-11T08:51:17.623Z,16.67
2022-12-11T08:54:21.551Z,17.30
2022-12-11T08:57:24.134Z,18.33
2022-12-11T09:00:26.737Z,18.57
2022-12-11T09:03:29.309Z,20.00
2022-12-11T09:06:34.288Z,19.83
2022-12-11T09:09:38.229Z,20.53
2022-12-11T09:12:41.476Z,16.80
2022-12-11T09:15:44.246Z,15.60
2022-12-11T09:18:47.453Z,22.00
2022-12-11T09:21:50.099Z,16.40
2022-12-11T09:24:54.029Z,15.87
2022-12-11T09:27:56.618Z,15.43
2022-12-11T09:30:59.643Z,19.23
2022-12-11T09:34:04.916Z,16.97
2022-12-11T09:37:07.497Z,17.47
2022-12-11T09:40:13.759Z,16.27
2022-12-11T09:43:37.269Z,16.83
2022-12-11T09:46:41.627Z,17.90
2022-12-11T09:49:46.593Z,16.30
2022-12-11T09:52:58.817Z,14.23
2022-12-11T09:56:08.315Z,17.40
2022-12-11T09:59:22.775Z,20.47
2022-12-11T10:02:40.899Z,17.07
2022-12-11T10:05:51.243Z,18.13
2022-12-11T10:09:04.200Z,16.23
2022-12-11T10:12:21.704Z,17.33
2022-12-11T10:15:40.766Z,15.40
2022-12-11T10:18:43.687Z,15.50
2022-12-11T10:21:47.632Z,14.47
2022-12-11T10:25:10.635Z,15.40
2022-12-11T10:28:17.394Z,17.23
2022-12-11T10:31:24.130Z,16.70
2022-12-11T10:34:35.229Z,17.45
2022-12-11T10:37:37.884Z,17.15
2022-12-11T10:40:43.790Z,15.33
2022-12-11T10:43:49.983Z,16.30
2022-12-11T10:47:03.949Z,15.73
2022-12-11T10:50:07.064Z,15.30
2022-12-11T10:53:21.380Z,15.10
2022-12-11T10:56:29.228Z,15.07
2022-12-11T10:59:37.543Z,15.57
2022-12-11T11:02:41.885Z,14.20
2022-12-11T11:05:49.242Z,13.90
2022-12-11T11:08:53.764Z,13.63
2022-12-11T11:11:56.366Z,13.57
2022-12-11T11:15:05.636Z,14.37
2022-12-11T11:18:13.557Z,14.37
2022-12-11T11:21:17.775Z,15.60
2022-12-11T11:24:28.757Z,13.87
2022-12-11T11:27:36.930Z,14.47
2022-12-11T11:30:42.867Z,14.97
2022-12-11T11:33:52.308Z,15.87
2022-12-11T11:37:00.899Z,14.03
2022-12-11T11:40:09.937Z,14.97
2022-12-11T11:43:19.968Z,14.33
2022-12-11T11:46:27.161Z,13.70
2022-12-11T11:49:45.469Z,17.03
2022-12-11T11:52:53.029Z,14.87
2022-12-11T11:56:04.016Z,16.33
2022-12-11T11:59:15.125Z,18.13
2022-12-11T12:02:20.853Z,14.40
2022-12-11T12:05:39.282Z,14.93
2022-12-11T12:08:47.560Z,14.57
2022-12-11T12:11:57.334Z,15.57
2022-12-11T12:15:11.166Z,15.93
2022-12-11T12:18:26.047Z,17.10
2022-12-11T12:21:35.205Z,18.27
2022-12-11T12:24:48.234Z,18.83
2022-12-11T12:28:00.501Z,16.03
2022-12-11T12:31:18.112Z,15.90
2022-12-11T12:34:37.743Z,22.90
2022-12-11T12:37:52.018Z,18.93
2022-12-11T12:41:03.818Z,17.17
2022-12-11T12:44:16.809Z,18.57
2022-12-11T12:47:20.859Z,17.83
2022-12-11T12:50:28.303Z,19.07
2022-12-11T12:53:35.699Z,17.73
2022-12-11T12:56:40.575Z,15.57
2022-12-11T12:59:43.163Z,18.97
2022-12-11T13:02:51.201Z,23.90
2022-12-11T13:06:00.378Z,20.80
2022-12-11T13:09:17.003Z,18.13
2022-12-11T13:12:32.915Z,16.57
2022-12-11T13:15:40.885Z,17.20
2022-12-11T13:18:45.218Z,16.20
2022-12-11T13:21:58.269Z,18.17
2022-12-11T13:25:04.739Z,18.67
2022-12-11T13:28:08.675Z,18.70
2022-12-11T13:31:33.612Z,18.03
2022-12-11T13:34:38.923Z,19.33
2022-12-11T13:37:45.196Z,20.53
2022-12-11T13:40:53.120Z,18.40
2022-12-11T13:43:58.389Z,18.77
2022-12-11T13:47:04.514Z,19.20
2022-12-11T13:50:23.888Z,17.97
2022-12-11T13:53:28.214Z,18.97
2022-12-11T13:56:30.817Z,20.20
2022-12-11T13:59:35.845Z,18.20
2022-12-11T14:02:42.437Z,19.10
2022-12-11T14:05:45.234Z,20.50
2022-12-11T14:08:53.873Z,19.00
2022-12-11T14:11:59.073Z,17.33
2022-12-11T14:15:04.504Z,19.07
2022-12-11T14:18:07.279Z,19.50
2022-12-11T14:21:19.981Z,20.87
2022-12-11T14:24:24.257Z,24.23
2022-12-11T14:27:28.662Z,21.33
2022-12-11T14:30:34.237Z,20.37
2022-12-11T14:33:42.003Z,25.37
2022-12-11T14:36:46.062Z,22.27
2022-12-11T14:39:57.777Z,25.53
2022-12-11T14:43:03.962Z,25.07
2022-12-11T14:46:11.954Z,20.10
2022-12-11T14:49:20.240Z,21.07
2022-12-11T14:52:30.172Z,21.37
2022-12-11T14:55:36.513Z,20.93
2022-12-11T14:58:43.279Z,22.43
2022-12-11T15:01:46.214Z,21.57
2022-12-11T15:05:06.251Z,22.53
2022-12-11T15:08:24.623Z,25.00
2022-12-11T15:11:32.881Z,27.63
2022-12-11T15:14:35.728Z,25.20
2022-12-11T15:17:38.352Z,31.43
2022-12-11T15:20:41.038Z,30.73
2022-12-11T15:23:52.353Z,32.47
2022-12-11T15:27:00.978Z,28.37
2022-12-11T15:30:03.854Z,31.80
2022-12-11T15:33:20.260Z,32.90
2022-12-11T15:36:26.541Z,26.77
2022-12-11T15:39:29.141Z,27.63
2022-12-11T15:42:36.220Z,26.23
2022-12-11T15:45:38.800Z,22.00
2022-12-11T15:48:41.439Z,29.37
2022-12-11T15:51:44.012Z,30.50
2022-12-11T15:54:46.641Z,27.97
2022-12-11T15:57:55.158Z,25.83
2022-12-11T16:00:59.003Z,28.63
2022-12-11T16:04:05.187Z,25.27
2022-12-11T16:07:16.257Z,24.77
2022-12-11T16:10:20.504Z,23.50
2022-12-11T16:13:24.443Z,24.63
2022-12-11T16:16:27.032Z,26.77
2022-12-11T16:19:29.631Z,22.43
2022-12-11T16:22:32.237Z,26.60
2022-12-11T16:25:35.093Z,24.43
2022-12-11T16:28:39.018Z,29.27
2022-12-11T16:31:41.604Z,26.03
2022-12-11T16:34:44.837Z,24.47
2022-12-11T16:37:50.172Z,26.53
2022-12-11T16:41:00.763Z,26.30
2022-12-11T16:44:04.897Z,25.03
2022-12-11T16:47:07.592Z,27.27
2022-12-11T16:50:10.922Z,25.27
2022-12-11T16:53:15.294Z,34.80
2022-12-11T16:56:17.880Z,24.67
2022-12-11T16:59:21.849Z,30.57
2022-12-11T17:02:24.584Z,23.27
2022-12-11T17:05:27.218Z,27.00
2022-12-11T17:08:29.874Z,26.37
2022-12-11T17:11:32.495Z,22.33
2022-12-11T17:14:36.549Z,25.43
2022-12-11T17:17:39.216Z,20.30
2022-12-11T17:20:42.655Z,23.67
2022-12-11T17:23:45.803Z,24.43
2022-12-11T17:26:48.456Z,21.77
2022-12-11T17:29:52.384Z,23.40
2022-12-11T17:32:54.963Z,23.93
2022-12-11T17:36:00.306Z,56.30
2022-12-11T17:39:02.982Z,52.03
2022-12-11T17:42:06.308Z,43.50
2022-12-11T17:45:11.597Z,34.73
2022-12-11T17:48:15.256Z,25.33
2022-12-11T17:51:23.573Z,23.27
2022-12-11T17:54:26.236Z,24.13
2022-12-11T17:57:28.820Z,22.83
2022-12-11T18:00:33.497Z,23.37
2022-12-11T18:03:36.898Z,28.10
2022-12-11T18:06:39.595Z,26.30
2022-12-11T18:09:42.501Z,30.43
2022-12-11T18:12:45.245Z,29.07
2022-12-11T18:16:00.418Z,27.53
2022-12-11T18:19:03.111Z,27.33
2022-12-11T18:22:05.693Z,27.87
2022-12-11T18:25:10.155Z,28.13
2022-12-11T18:28:14.319Z,30.10
2022-12-11T18:31:19.487Z,28.70
2022-12-11T18:34:22.150Z,27.33
2022-12-11T18:37:27.884Z,29.17
2022-12-11T18:40:30.905Z,30.27
2022-12-11T18:43:33.597Z,32.90
2022-12-11T18:46:39.240Z,32.17
2022-12-11T18:49:41.902Z,38.77
2022-12-11T18:52:44.470Z,36.40
2022-12-11T18:55:49.793Z,33.80
2022-12-11T18:58:53.074Z,30.37
2022-12-11T19:01:57.034Z,32.40
2022-12-11T19:04:59.672Z,37.13
2022-12-11T19:08:02.495Z,47.10
2022-12-11T19:11:05.394Z,34.83
2022-12-11T19:14:09.294Z,31.63
2022-12-11T19:17:13.271Z,36.87
2022-12-11T19:20:47.651Z,32.83
2022-12-11T19:23:38.594Z,32.33
2022-12-11T19:26:41.240Z,28.47
2022-12-11T19:29:43.834Z,29.07
2022-12-11T19:32:47.841Z,27.97
2022-12-11T19:35:50.474Z,30.87
2022-12-11T19:38:57.928Z,32.03
2022-12-11T19:42:03.722Z,29.03
2022-12-11T19:45:07.455Z,33.10
2022-12-11T19:48:11.639Z,31.70
2022-12-11T19:51:16.620Z,33.73
2022-12-11T19:54:19.330Z,35.53
2022-12-11T19:57:21.907Z,33.50
2022-12-11T20:00:24.578Z,31.30
2022-12-11T20:03:28.995Z,38.33
2022-12-11T20:06:33.491Z,37.07
2022-12-11T20:09:36.100Z,35.33
2022-12-11T20:12:38.712Z,38.10
2022-12-11T20:15:41.581Z,40.17
2022-12-11T20:18:46.181Z,39.50
2022-12-11T20:21:48.993Z,36.27
2022-12-11T20:24:51.776Z,36.50
2022-12-11T20:27:55.570Z,37.43
2022-12-11T20:31:04.743Z,35.47
2022-12-11T20:34:08.880Z,39.93
2022-12-11T20:37:11.494Z,34.07
2022-12-11T20:40:14.306Z,40.33
2022-12-11T20:43:17.086Z,36.50
2022-12-11T20:46:20.298Z,43.53
2022-12-11T20:49:24.334Z,36.77
2022-12-11T20:52:27.930Z,33.97
2022-12-11T20:55:30.518Z,38.50
2022-12-11T20:58:33.104Z,38.17
2022-12-11T21:01:35.852Z,36.80
2022-12-11T21:04:41.240Z,37.13
2022-12-11T21:07:43.856Z,36.20
2022-12-11T21:10:47.272Z,37.97
2022-12-11T21:13:50.488Z,39.43
2022-12-11T21:16:53.156Z,36.30
2022-12-11T21:19:57.138Z,37.47
2022-12-11T21:22:59.874Z,36.50
2022-12-11T21:26:03.121Z,38.07
2022-12-11T21:29:05.758Z,35.70
2022-12-11T21:32:08.429Z,38.90
2022-12-11T21:35:13.429Z,33.63
2022-12-11T21:38:16.239Z,36.17
2022-12-11T21:41:21.483Z,33.70
2022-12-11T21:47:46.654Z,36.43
2022-12-11T21:50:51.553Z,38.83
2022-12-11T21:53:54.583Z,33.77
2022-12-11T21:56:57.642Z,34.07
2022-12-11T22:00:00.818Z,38.07
2022-12-11T22:03:03.426Z,39.83
2022-12-11T22:06:07.978Z,38.43
2022-12-11T22:09:12.345Z,36.93
2022-12-11T22:12:23.049Z,35.07
2022-12-11T22:15:25.649Z,37.03
2022-12-11T22:18:28.409Z,36.93
2022-12-11T22:21:32.411Z,36.80
2022-12-11T22:24:34.997Z,38.23
2022-12-11T22:27:37.579Z,36.03
2022-12-11T22:30:40.264Z,38.93
2022-12-11T22:33:43.084Z,35.30
2022-12-11T22:36:47.036Z,34.90
2022-12-11T22:39:49.689Z,36.47
2022-12-11T22:42:52.316Z,35.07
2022-12-11T22:45:55.105Z,36.23
2022-12-11T22:48:59.354Z,35.07
2022-12-11T22:52:03.302Z,35.43
2022-12-11T22:55:07.148Z,35.63
2022-12-11T22:58:09.746Z,37.93
2022-12-11T23:01:14.874Z,37.57
2022-12-11T23:04:17.487Z,38.40
2022-12-11T23:07:21.439Z,34.40
2022-12-11T23:10:24.037Z,36.70
2022-12-11T23:13:26.662Z,39.73
2022-12-11T23:16:29.731Z,36.07
2022-12-11T23:19:32.535Z,34.57
2022-12-11T23:22:36.479Z,37.97
2022-12-11T23:25:39.124Z,35.77
2022-12-11T23:28:42.563Z,35.37
2022-12-11T23:31:45.188Z,39.20
2022-12-11T23:34:47.785Z,38.27
2022-12-11T23:37:51.745Z,38.30
2022-12-11T23:40:55.081Z,35.63
2022-12-11T23:43:57.656Z,35.10
2022-12-11T23:47:00.516Z,34.60
2022-12-11T23:50:03.094Z,34.47
2022-12-11T23:53:07.333Z,36.50
2022-12-11T23:56:14.765Z,33.83
2022-12-11T23:59:17.353Z,33.83
